createdAt,value
2023-02-07T00:00:00.974Z,66.63
2023-02-07T00:01:00.925Z,66.94
2023-02-07T00:02:01.134Z,67.05
2023-02-07T00:03:00.996Z,66.84
2023-02-07T00:04:00.914Z,66.81
2023-02-07T00:05:00.886Z,67.05
2023-02-07T00:06:00.967Z,67.15
2023-02-07T00:07:00.896Z,67.15
2023-02-07T00:08:00.922Z,67.49
2023-02-07T00:09:00.911Z,67.91
2023-02-07T00:10:11.216Z,68.12
2023-02-07T00:11:00.864Z,68.43
2023-02-07T00:13:10.215Z,69.09
2023-02-07T00:14:10.207Z,68.63
2023-02-07T00:15:10.220Z,68.74
2023-02-07T00:16:10.155Z,68.71
2023-02-07T00:17:10.201Z,68.08
2023-02-07T00:18:10.118Z,68.32
2023-02-07T00:19:10.253Z,69.05
2023-02-07T00:20:10.113Z,68.81
2023-02-07T00:21:10.079Z,68.74
2023-02-07T00:22:10.062Z,68.95
2023-02-07T00:23:10.201Z,68.74
2023-02-07T00:24:10.036Z,69.19
2023-02-07T00:25:10.056Z,69.50
2023-02-07T00:26:09.987Z,69.71
2023-02-07T00:27:10.087Z,69.71
2023-02-07T00:28:10.110Z,69.78
2023-02-07T00:29:09.949Z,69.99
2023-02-07T00:30:09.984Z,70.20
2023-02-07T00:31:10.284Z,69.99
2023-02-07T00:32:09.910Z,70.23
2023-02-07T00:33:10.087Z,70.40
2023-02-07T00:34:09.920Z,70.43
2023-02-07T00:35:09.891Z,70.64
2023-02-07T00:36:10.099Z,70.64
2023-02-07T00:37:09.966Z,70.85
2023-02-07T00:38:09.859Z,71.09
2023-02-07T00:39:10.042Z,70.95
2023-02-07T00:40:09.843Z,70.89
2023-02-07T00:41:09.877Z,70.95
2023-02-07T00:42:09.809Z,71.17
2023-02-07T00:43:28.995Z,71.06
2023-02-07T00:44:10.778Z,71.20
2023-02-07T00:45:09.767Z,71.27
2023-02-07T00:46:09.902Z,71.69
2023-02-07T00:47:09.736Z,71.27
2023-02-07T00:48:17.266Z,71.03
2023-02-07T00:49:09.771Z,70.64
2023-02-07T00:50:09.756Z,71.17
2023-02-07T00:51:12.768Z,71.27
2023-02-07T00:52:09.654Z,71.37
2023-02-07T00:53:09.665Z,71.37
2023-02-07T00:54:09.680Z,71.17
2023-02-07T00:55:09.664Z,71.17
2023-02-07T00:56:09.643Z,70.99
2023-02-07T00:57:09.665Z,71.61
2023-02-07T00:58:09.594Z,71.41
2023-02-07T00:59:09.663Z,71.72
2023-02-07T01:00:09.616Z,71.58
2023-02-07T01:01:09.643Z,71.65
2023-02-07T01:02:09.543Z,72.06
2023-02-07T01:03:09.592Z,72.17
2023-02-07T01:04:09.543Z,72.24
2023-02-07T01:05:09.498Z,72.24
2023-02-07T01:06:09.602Z,72.13
2023-02-07T01:07:09.509Z,72.06
2023-02-07T01:08:09.435Z,72.27
2023-02-07T01:09:09.665Z,72.06
2023-02-07T01:10:09.444Z,72.27
2023-02-07T01:11:09.408Z,71.86
2023-02-07T01:12:09.567Z,72.27
2023-02-07T01:13:09.453Z,72.17
2023-02-07T01:14:09.377Z,72.06
2023-02-07T01:15:09.429Z,71.86
2023-02-07T01:16:09.506Z,72.06
2023-02-07T01:17:09.407Z,71.96
2023-02-07T01:18:09.480Z,71.86
2023-02-07T01:19:09.362Z,71.96
2023-02-07T01:20:09.300Z,71.86
2023-02-07T01:21:09.516Z,71.96
2023-02-07T01:22:09.339Z,72.58
2023-02-07T01:23:09.270Z,72.17
2023-02-07T01:24:09.426Z,72.09
2023-02-07T01:25:09.229Z,71.89
2023-02-07T01:26:09.276Z,71.99
2023-02-07T01:27:09.335Z,72.79
2023-02-07T01:28:09.357Z,72.38
2023-02-07T01:29:09.194Z,71.86
2023-02-07T01:30:09.291Z,71.75
2023-02-07T01:31:09.330Z,71.86
2023-02-07T01:32:09.164Z,71.61
2023-02-07T01:33:09.306Z,71.54
2023-02-07T01:34:09.176Z,71.41
2023-02-07T01:35:09.182Z,71.09
2023-02-07T01:36:09.301Z,71.23
2023-02-07T01:37:09.128Z,71.44
2023-02-07T01:38:09.054Z,71.75
2023-02-07T01:39:09.209Z,71.47
2023-02-07T01:40:09.074Z,72.09
2023-02-07T01:41:09.025Z,72.20
2023-02-07T01:42:09.130Z,72.30
2023-02-07T01:43:09.078Z,72.30
2023-02-07T01:44:09.008Z,71.75
2023-02-07T01:45:09.097Z,71.86
2023-02-07T01:46:09.005Z,71.58
2023-02-07T01:47:08.917Z,71.47
2023-02-07T01:48:09.091Z,72.09
2023-02-07T01:49:08.946Z,72.06
2023-02-07T01:50:08.923Z,71.44
2023-02-07T01:51:09.031Z,71.44
2023-02-07T01:52:08.943Z,71.02
2023-02-07T01:53:08.916Z,71.12
2023-02-07T01:54:08.862Z,70.81
2023-02-07T01:55:08.900Z,71.09
2023-02-07T01:56:08.802Z,70.81
2023-02-07T01:57:08.817Z,70.92
2023-02-07T01:58:08.991Z,71.05
2023-02-07T01:59:08.804Z,71.37
2023-02-07T02:00:08.784Z,71.16
2023-02-07T02:01:08.981Z,71.26
2023-02-07T02:02:08.791Z,70.92
2023-02-07T02:03:08.722Z,70.71
2023-02-07T02:04:08.826Z,70.40
2023-02-07T02:05:08.722Z,70.09
2023-02-07T02:06:08.737Z,70.43
2023-02-07T02:07:20.877Z,70.64
2023-02-07T02:08:08.705Z,70.84
2023-02-07T02:09:08.642Z,70.95
2023-02-07T02:10:08.769Z,71.02
2023-02-07T02:11:08.674Z,70.81
2023-02-07T02:12:08.687Z,70.61
2023-02-07T02:13:08.601Z,70.64
2023-02-07T02:14:08.773Z,70.74
2023-02-07T02:15:08.605Z,70.64
2023-02-07T02:16:08.693Z,70.64
2023-02-07T02:17:08.664Z,70.74
2023-02-07T02:18:08.523Z,70.78
2023-02-07T02:19:08.533Z,70.74
2023-02-07T02:20:08.704Z,70.74
2023-02-07T02:21:08.495Z,70.78
2023-02-07T02:22:08.580Z,71.09
2023-02-07T02:23:08.671Z,70.78
2023-02-07T02:24:08.473Z,70.74
2023-02-07T02:25:08.443Z,70.19
2023-02-07T02:26:09.209Z,70.19
2023-02-07T02:27:08.481Z,69.84
2023-02-07T02:28:08.459Z,69.84
2023-02-07T02:29:08.523Z,69.87
2023-02-07T02:30:08.409Z,69.98
2023-02-07T02:31:08.549Z,70.19
2023-02-07T02:32:08.488Z,70.29
2023-02-07T02:33:08.373Z,70.53
2023-02-07T02:34:08.431Z,70.88
2023-02-07T02:35:08.528Z,70.98
2023-02-07T02:36:08.346Z,71.30
2023-02-07T02:37:08.352Z,71.09
2023-02-07T02:38:08.460Z,71.09
2023-02-07T02:39:08.264Z,71.40
2023-02-07T02:40:08.296Z,71.40
2023-02-07T02:41:38.402Z,71.50
2023-02-07T02:42:08.280Z,71.85
2023-02-07T02:43:08.190Z,71.95
2023-02-07T02:44:08.332Z,71.95
2023-02-07T02:45:08.201Z,72.06
2023-02-07T02:46:08.457Z,72.06
2023-02-07T02:47:08.265Z,72.06
2023-02-07T02:48:08.132Z,71.95
2023-02-07T02:49:08.138Z,71.95
2023-02-07T02:50:08.163Z,71.95
2023-02-07T02:51:08.170Z,72.06
2023-02-07T02:52:08.182Z,71.95
2023-02-07T02:53:08.070Z,71.95
2023-02-07T02:54:08.068Z,71.95
2023-02-07T02:55:08.061Z,72.27
2023-02-07T02:56:08.029Z,71.95
2023-02-07T02:57:08.068Z,71.75
2023-02-07T02:58:08.046Z,71.85
2023-02-07T02:59:08.005Z,71.64
2023-02-07T03:00:08.028Z,71.78
2023-02-07T03:01:08.001Z,71.85
2023-02-07T03:02:07.970Z,72.09
2023-02-07T03:03:07.949Z,71.85
2023-02-07T03:04:07.953Z,71.95
2023-02-07T03:05:08.012Z,71.75
2023-02-07T03:06:07.975Z,71.67
2023-02-07T03:07:07.944Z,71.64
2023-02-07T03:08:07.892Z,71.22
2023-02-07T03:09:07.890Z,71.01
2023-02-07T03:10:07.918Z,71.22
2023-02-07T03:11:07.860Z,71.12
2023-02-07T03:12:07.850Z,71.12
2023-02-07T03:13:07.810Z,71.12
2023-02-07T03:14:07.794Z,71.22
2023-02-07T03:15:07.846Z,71.47
2023-02-07T03:16:07.805Z,71.67
2023-02-07T03:17:07.811Z,71.88
2023-02-07T03:18:07.766Z,71.98
2023-02-07T03:19:07.741Z,71.88
2023-02-07T03:20:07.728Z,72.09
2023-02-07T03:21:07.819Z,72.09
2023-02-07T03:22:07.775Z,71.98
2023-02-07T03:23:07.756Z,71.78
2023-02-07T03:24:07.721Z,71.88
2023-02-07T03:25:07.693Z,72.23
2023-02-07T03:26:07.672Z,72.30
2023-02-07T03:27:07.804Z,72.30
2023-02-07T03:28:07.762Z,72.30
2023-02-07T03:29:07.709Z,72.41
2023-02-07T03:30:07.797Z,72.41
2023-02-07T03:31:07.699Z,72.30
2023-02-07T03:32:07.596Z,72.23
2023-02-07T03:33:07.739Z,72.41
2023-02-07T03:34:07.708Z,72.72
2023-02-07T03:35:07.588Z,72.61
2023-02-07T03:36:07.598Z,72.41
2023-02-07T03:37:07.525Z,73.03
2023-02-07T03:38:07.520Z,72.72
2023-02-07T03:39:07.697Z,72.51
2023-02-07T03:40:07.551Z,72.51
2023-02-07T03:41:07.516Z,72.61
2023-02-07T03:43:16.840Z,72.85
2023-02-07T03:44:24.354Z,72.85
2023-02-07T03:45:16.828Z,73.27
2023-02-07T03:46:24.332Z,72.96
2023-02-07T03:47:23.868Z,72.44
2023-02-07T03:48:16.746Z,72.54
2023-02-07T03:49:16.881Z,72.19
2023-02-07T03:50:16.735Z,72.23
2023-02-07T03:51:18.101Z,72.13
2023-02-07T03:52:16.758Z,72.41
2023-02-07T03:53:34.153Z,72.19
2023-02-07T03:54:17.717Z,72.41
2023-02-07T03:55:16.691Z,72.33
2023-02-07T03:56:16.808Z,72.75
2023-02-07T03:57:16.683Z,72.75
2023-02-07T03:58:16.646Z,72.78
2023-02-07T03:59:16.851Z,72.75
2023-02-07T04:00:16.647Z,73.17
2023-02-07T04:01:16.682Z,72.75
2023-02-07T04:02:16.814Z,72.75
2023-02-07T04:03:16.669Z,72.96
2023-02-07T04:04:16.574Z,72.85
2023-02-07T04:05:16.556Z,72.99
2023-02-07T04:06:16.559Z,72.68
2023-02-07T04:07:16.567Z,72.78
2023-02-07T04:08:16.518Z,73.30
2023-02-07T04:09:16.585Z,73.27
2023-02-07T04:10:16.487Z,72.96
2023-02-07T04:11:16.491Z,73.07
2023-02-07T04:12:16.529Z,72.75
2023-02-07T04:13:16.437Z,73.27
2023-02-07T04:14:16.401Z,72.89
2023-02-07T04:15:16.535Z,73.07
2023-02-07T04:16:16.494Z,73.20
2023-02-07T04:17:16.488Z,73.62
2023-02-07T04:18:16.495Z,73.30
2023-02-07T04:19:16.374Z,73.30
2023-02-07T04:20:16.350Z,73.41
2023-02-07T04:21:16.478Z,73.83
2023-02-07T04:22:16.331Z,73.96
2023-02-07T04:23:16.415Z,73.83
2023-02-07T04:24:16.386Z,73.72
2023-02-07T04:25:16.323Z,73.83
2023-02-07T04:26:16.392Z,73.83
2023-02-07T04:27:16.407Z,73.86
2023-02-07T04:28:16.351Z,73.83
2023-02-07T04:29:16.294Z,73.62
2023-02-07T04:30:16.350Z,73.65
2023-02-07T04:31:16.406Z,73.65
2023-02-07T04:32:16.172Z,73.55
2023-02-07T04:33:16.317Z,73.75
2023-02-07T04:34:16.272Z,73.86
2023-02-07T04:35:16.170Z,73.93
2023-02-07T04:36:16.202Z,73.65
2023-02-07T04:37:16.130Z,73.86
2023-02-07T04:38:16.336Z,73.75
2023-02-07T04:39:16.150Z,73.96
2023-02-07T04:40:16.131Z,74.38
2023-02-07T04:41:16.174Z,74.59
2023-02-07T04:42:16.254Z,74.49
2023-02-07T04:43:16.198Z,74.28
2023-02-07T04:44:16.080Z,74.07
2023-02-07T04:45:16.171Z,74.18
2023-02-07T04:46:16.020Z,73.96
2023-02-07T04:47:16.057Z,73.96
2023-02-07T04:48:16.405Z,73.86
2023-02-07T04:49:16.019Z,74.07
2023-02-07T04:50:16.028Z,74.07
2023-02-07T04:51:15.995Z,74.00
2023-02-07T04:52:15.972Z,74.00
2023-02-07T04:53:16.056Z,74.10
2023-02-07T04:54:16.015Z,74.31
2023-02-07T04:55:15.942Z,74.21
2023-02-07T04:56:15.930Z,74.00
2023-02-07T04:57:41.280Z,74.21
2023-02-07T04:58:15.896Z,74.42
2023-02-07T04:59:15.946Z,74.31
2023-02-07T05:00:15.987Z,74.21
2023-02-07T05:01:15.872Z,74.07
2023-02-07T05:02:15.877Z,73.79
2023-02-07T05:03:15.937Z,73.79
2023-02-07T05:04:15.794Z,74.10
2023-02-07T05:05:15.775Z,73.79
2023-02-07T05:06:15.981Z,74.10
2023-02-07T05:07:15.729Z,74.49
2023-02-07T05:08:15.721Z,73.96
2023-02-07T05:09:15.870Z,73.90
2023-02-07T05:10:15.760Z,73.79
2023-02-07T05:11:15.721Z,73.79
2023-02-07T05:12:15.876Z,73.79
2023-02-07T05:13:15.874Z,74.10
2023-02-07T05:14:15.737Z,74.31
2023-02-07T05:15:15.735Z,74.00
2023-02-07T05:16:15.962Z,74.10
2023-02-07T05:17:15.665Z,73.90
2023-02-07T05:18:15.649Z,74.00
2023-02-07T05:19:15.657Z,73.69
2023-02-07T05:20:15.626Z,73.90
2023-02-07T05:21:15.753Z,73.86
2023-02-07T05:22:15.684Z,73.44
2023-02-07T05:23:15.568Z,73.44
2023-02-07T05:24:15.582Z,73.44
2023-02-07T05:25:15.658Z,73.44
2023-02-07T05:26:15.668Z,72.96
2023-02-07T05:27:15.566Z,73.37
2023-02-07T05:28:15.714Z,74.00
2023-02-07T05:29:15.540Z,73.90
2023-02-07T05:30:15.449Z,74.00
2023-02-07T05:31:15.663Z,73.90
2023-02-07T05:32:15.459Z,73.58
2023-02-07T05:33:15.479Z,73.58
2023-02-07T05:34:15.590Z,73.69
2023-02-07T05:35:15.362Z,73.79
2023-02-07T05:36:15.371Z,73.79
2023-02-07T05:37:15.533Z,73.69
2023-02-07T05:38:15.335Z,73.58
2023-02-07T05:39:15.341Z,73.47
2023-02-07T05:40:15.465Z,73.58
2023-02-07T05:41:15.302Z,73.51
2023-02-07T05:42:15.360Z,73.51
2023-02-07T05:43:15.589Z,73.41
2023-02-07T05:44:15.323Z,73.61
2023-02-07T05:45:15.278Z,73.51
2023-02-07T05:46:15.530Z,73.61
2023-02-07T05:47:15.247Z,73.72
2023-02-07T05:48:15.249Z,73.65
2023-02-07T05:49:15.380Z,73.82
2023-02-07T05:50:15.208Z,73.93
2023-02-07T05:51:15.425Z,73.72
2023-02-07T05:52:15.368Z,73.58
2023-02-07T05:53:15.161Z,73.30
2023-02-07T05:54:15.161Z,73.41
2023-02-07T05:55:15.240Z,73.41
2023-02-07T05:56:15.145Z,73.41
2023-02-07T05:57:15.126Z,73.72
2023-02-07T05:58:15.054Z,73.72
2023-02-07T06:00:24.509Z,73.96
2023-02-07T06:01:24.460Z,74.45
2023-02-07T06:02:24.689Z,73.93
2023-02-07T06:03:24.406Z,73.09
2023-02-07T06:04:24.546Z,73.19
2023-02-07T06:05:24.395Z,73.61
2023-02-07T06:06:24.383Z,72.88
2023-02-07T06:07:24.384Z,73.09
2023-02-07T06:08:24.484Z,72.67
2023-02-07T06:09:24.308Z,72.57
2023-02-07T06:10:24.369Z,72.67
2023-02-07T06:11:24.261Z,72.78
2023-02-07T06:12:24.509Z,72.88
2023-02-07T06:13:24.360Z,72.88
2023-02-07T06:14:24.262Z,72.64
2023-02-07T06:15:24.353Z,72.47
2023-02-07T06:16:24.423Z,73.19
2023-02-07T06:17:24.198Z,72.75
2023-02-07T06:18:24.201Z,72.36
2023-02-07T06:19:24.404Z,72.36
2023-02-07T06:20:24.200Z,72.22
2023-02-07T06:21:24.860Z,72.43
2023-02-07T06:22:24.211Z,72.12
2023-02-07T06:23:24.224Z,72.12
2023-02-07T06:24:24.267Z,72.36
2023-02-07T06:25:24.155Z,72.53
2023-02-07T06:26:24.150Z,72.25
2023-02-07T06:27:24.134Z,72.33
2023-02-07T06:28:24.389Z,71.94
2023-02-07T06:29:24.086Z,72.15
2023-02-07T06:30:24.127Z,71.73
2023-02-07T06:31:48.251Z,71.87
2023-02-07T06:32:25.127Z,72.29
2023-02-07T06:33:23.989Z,72.08
2023-02-07T06:34:24.157Z,72.29
2023-02-07T06:35:24.002Z,72.60
2023-02-07T06:36:24.029Z,72.60
2023-02-07T06:37:24.047Z,72.29
2023-02-07T06:38:24.056Z,72.08
2023-02-07T06:39:24.109Z,72.29
2023-02-07T06:40:23.956Z,71.97
2023-02-07T06:41:24.070Z,72.39
2023-02-07T06:42:24.051Z,72.53
2023-02-07T06:43:23.983Z,72.12
2023-02-07T06:44:34.037Z,71.80
2023-02-07T06:45:24.891Z,71.77
2023-02-07T06:46:23.913Z,71.34
2023-02-07T06:47:37.697Z,71.62
2023-02-07T06:48:24.879Z,71.94
2023-02-07T06:49:23.820Z,71.73
2023-02-07T06:50:23.810Z,71.31
2023-02-07T06:51:33.992Z,71.49
2023-02-07T06:52:23.795Z,71.42
2023-02-07T06:53:23.764Z,71.21
2023-02-07T06:54:23.890Z,70.93
2023-02-07T06:55:23.823Z,71.03
2023-02-07T06:56:23.894Z,71.21
2023-02-07T06:57:23.822Z,70.93
2023-02-07T06:58:23.770Z,71.14
2023-02-07T06:59:23.858Z,71.14
2023-02-07T07:00:23.796Z,71.42
2023-02-07T07:01:23.778Z,71.31
2023-02-07T07:02:23.819Z,71.00
2023-02-07T07:03:23.638Z,70.79
2023-02-07T07:04:23.598Z,70.90
2023-02-07T07:05:23.638Z,70.90
2023-02-07T07:06:23.670Z,70.48
2023-02-07T07:07:23.577Z,70.27
2023-02-07T07:08:23.654Z,70.17
2023-02-07T07:09:23.546Z,70.27
2023-02-07T07:10:23.563Z,70.27
2023-02-07T07:11:23.612Z,69.85
2023-02-07T07:12:23.561Z,69.78
2023-02-07T07:13:23.530Z,70.20
2023-02-07T07:14:23.537Z,70.61
2023-02-07T07:15:23.565Z,70.83
2023-02-07T07:16:23.554Z,70.61
2023-02-07T07:17:23.504Z,70.61
2023-02-07T07:18:23.581Z,70.72
2023-02-07T07:19:23.469Z,70.72
2023-02-07T07:20:23.422Z,70.83
2023-02-07T07:21:23.451Z,70.61
2023-02-07T07:22:23.426Z,70.86
2023-02-07T07:23:23.458Z,71.03
2023-02-07T07:24:23.477Z,71.03
2023-02-07T07:25:23.356Z,71.03
2023-02-07T07:26:23.371Z,70.83
2023-02-07T07:27:23.369Z,70.61
2023-02-07T07:28:23.341Z,70.51
2023-02-07T07:29:23.391Z,70.96
2023-02-07T07:30:23.301Z,70.93
2023-02-07T07:31:23.300Z,71.34
2023-02-07T07:32:33.686Z,71.24
2023-02-07T07:33:24.246Z,70.51
2023-02-07T07:34:23.278Z,70.72
2023-02-07T07:35:23.296Z,70.72
2023-02-07T07:36:30.877Z,70.72
2023-02-07T07:37:30.774Z,70.83
2023-02-07T07:38:30.730Z,70.17
2023-02-07T07:39:23.177Z,70.30
2023-02-07T07:40:23.155Z,70.40
2023-02-07T07:41:23.244Z,70.30
2023-02-07T07:42:23.115Z,69.99
2023-02-07T07:43:23.165Z,70.09
2023-02-07T07:44:23.134Z,70.20
2023-02-07T07:45:23.186Z,69.57
2023-02-07T07:46:23.102Z,69.78
2023-02-07T07:47:23.165Z,69.46
2023-02-07T07:48:23.205Z,69.46
2023-02-07T07:49:23.126Z,69.67
2023-02-07T07:50:28.039Z,69.88
2023-02-07T07:51:23.117Z,69.67
2023-02-07T07:52:23.028Z,69.57
2023-02-07T07:53:23.089Z,69.46
2023-02-07T07:54:22.992Z,69.78
2023-02-07T07:55:22.981Z,69.88
2023-02-07T07:56:23.025Z,69.78
2023-02-07T07:57:23.033Z,69.99
2023-02-07T07:58:22.961Z,69.78
2023-02-07T07:59:24.188Z,69.99
2023-02-07T08:00:22.948Z,69.78
2023-02-07T08:01:22.938Z,69.67
2023-02-07T08:02:22.941Z,69.57
2023-02-07T08:03:22.954Z,69.15
2023-02-07T08:04:22.856Z,69.15
2023-02-07T08:05:22.874Z,69.26
2023-02-07T08:06:23.630Z,69.15
2023-02-07T08:07:22.833Z,68.63
2023-02-07T08:08:22.837Z,68.80
2023-02-07T08:09:22.817Z,68.15
2023-02-07T08:10:22.829Z,67.97
2023-02-07T08:11:22.903Z,68.07
2023-02-07T08:12:22.774Z,67.94
2023-02-07T08:13:23.369Z,67.69
2023-02-07T08:14:22.747Z,66.89
2023-02-07T08:15:22.693Z,67.13
2023-02-07T08:16:22.756Z,67.34
2023-02-07T08:17:22.787Z,67.55
2023-02-07T08:18:22.721Z,67.52
2023-02-07T08:19:22.698Z,67.55
2023-02-07T08:20:22.677Z,67.76
2023-02-07T08:21:22.706Z,68.25
2023-02-07T08:22:22.635Z,67.76
2023-02-07T08:23:22.696Z,68.04
2023-02-07T08:24:22.629Z,67.62
2023-02-07T08:25:22.565Z,67.73
2023-02-07T08:26:22.573Z,67.94
2023-02-07T08:27:22.636Z,67.62
2023-02-07T08:28:22.629Z,67.73
2023-02-07T08:29:22.571Z,68.12
2023-02-07T08:30:22.553Z,67.52
2023-02-07T08:31:22.567Z,67.38
2023-02-07T08:32:22.486Z,67.10
2023-02-07T08:33:22.488Z,67.00
2023-02-07T08:34:22.485Z,67.94
2023-02-07T08:35:22.502Z,68.25
2023-02-07T08:36:22.489Z,67.80
2023-02-07T08:37:22.421Z,68.01
2023-02-07T08:38:22.429Z,67.66
2023-02-07T08:39:22.818Z,67.46
2023-02-07T08:40:22.360Z,67.04
2023-02-07T08:41:22.402Z,67.18
2023-02-07T08:42:22.371Z,68.12
2023-02-07T08:43:22.352Z,67.07
2023-02-07T08:44:22.327Z,66.86
2023-02-07T08:45:22.349Z,67.25
2023-02-07T08:46:22.353Z,66.75
2023-02-07T08:47:22.401Z,66.65
2023-02-07T08:48:22.291Z,66.86
2023-02-07T08:49:22.318Z,66.44
2023-02-07T08:50:22.241Z,66.34
2023-02-07T08:51:22.305Z,66.27
2023-02-07T08:52:22.245Z,66.47
2023-02-07T08:53:22.257Z,66.78
2023-02-07T08:54:22.228Z,67.28
2023-02-07T08:55:22.211Z,66.97
2023-02-07T08:56:22.183Z,66.65
2023-02-07T08:57:22.176Z,66.47
2023-02-07T08:58:22.247Z,67.00
2023-02-07T08:59:22.178Z,67.07
2023-02-07T09:00:22.147Z,66.58
2023-02-07T09:01:22.142Z,66.44
2023-02-07T09:02:22.245Z,66.44
2023-02-07T09:03:22.073Z,66.13
2023-02-07T09:04:22.076Z,65.92
2023-02-07T09:05:22.110Z,66.13
2023-02-07T09:06:22.069Z,66.03
2023-02-07T09:07:22.061Z,66.03
2023-02-07T09:08:22.776Z,66.03
2023-02-07T09:09:22.014Z,66.52
2023-02-07T09:10:22.041Z,65.89
2023-02-07T09:11:22.168Z,65.78
2023-02-07T09:12:21.986Z,66.28
2023-02-07T09:13:21.958Z,65.97
2023-02-07T09:14:21.979Z,65.65
2023-02-07T09:15:21.980Z,65.31
2023-02-07T09:16:22.059Z,65.41
2023-02-07T09:17:21.976Z,65.31
2023-02-07T09:18:21.903Z,64.61
2023-02-07T09:19:21.895Z,64.92
2023-02-07T09:20:21.919Z,64.92
2023-02-07T09:21:21.884Z,64.92
2023-02-07T09:22:21.827Z,65.03
2023-02-07T09:23:21.897Z,65.06
2023-02-07T09:24:21.818Z,65.16
2023-02-07T09:25:21.851Z,65.34
2023-02-07T09:26:21.805Z,65.23
2023-02-07T09:27:21.805Z,64.89
2023-02-07T09:28:21.827Z,65.10
2023-02-07T09:29:21.797Z,64.37
2023-02-07T09:30:21.783Z,64.26
2023-02-07T09:31:21.973Z,64.37
2023-02-07T09:32:21.735Z,64.47
2023-02-07T09:33:21.701Z,65.17
2023-02-07T09:34:21.708Z,64.34
2023-02-07T09:35:21.727Z,64.26
2023-02-07T09:36:21.659Z,64.34
2023-02-07T09:37:21.716Z,64.23
2023-02-07T09:38:21.658Z,64.76
2023-02-07T09:39:21.634Z,64.31
2023-02-07T09:40:21.671Z,64.03
2023-02-07T09:41:21.974Z,63.92
2023-02-07T09:42:21.586Z,63.71
2023-02-07T09:43:21.847Z,63.54
2023-02-07T09:44:21.736Z,63.75
2023-02-07T09:45:21.688Z,64.55
2023-02-07T09:46:21.542Z,63.92
2023-02-07T09:47:21.566Z,63.40
2023-02-07T09:48:21.507Z,63.58
2023-02-07T09:49:21.520Z,63.68
2023-02-07T09:50:21.595Z,63.58
2023-02-07T09:51:21.456Z,63.55
2023-02-07T09:52:21.461Z,63.24
2023-02-07T09:53:21.529Z,63.03
2023-02-07T09:54:21.437Z,63.17
2023-02-07T09:55:21.416Z,63.37
2023-02-07T09:56:21.512Z,63.58
2023-02-07T09:57:21.400Z,62.85
2023-02-07T09:58:21.374Z,63.27
2023-02-07T09:59:21.475Z,63.17
2023-02-07T10:00:21.479Z,63.06
2023-02-07T10:01:21.338Z,63.40
2023-02-07T10:02:21.381Z,63.37
2023-02-07T10:03:21.384Z,63.37
2023-02-07T10:04:21.295Z,62.72
2023-02-07T10:05:21.505Z,62.93
2023-02-07T10:06:22.457Z,62.82
2023-02-07T10:07:21.321Z,62.82
2023-02-07T10:08:22.138Z,62.72
2023-02-07T10:09:21.282Z,62.72
2023-02-07T10:10:21.279Z,62.51
2023-02-07T10:11:21.312Z,62.62
2023-02-07T10:12:21.193Z,62.62
2023-02-07T10:13:21.187Z,62.82
2023-02-07T10:14:21.167Z,62.93
2023-02-07T10:15:21.157Z,62.72
2023-02-07T10:16:21.170Z,62.72
2023-02-07T10:17:31.045Z,62.93
2023-02-07T10:18:22.126Z,62.82
2023-02-07T10:19:21.103Z,63.03
2023-02-07T10:20:21.218Z,63.10
2023-02-07T10:21:21.140Z,62.38
2023-02-07T10:22:21.057Z,62.38
2023-02-07T10:23:21.151Z,62.17
2023-02-07T10:24:21.102Z,62.17
2023-02-07T10:25:21.027Z,61.96
2023-02-07T10:26:21.110Z,62.69
2023-02-07T10:27:21.018Z,62.35
2023-02-07T10:28:21.062Z,61.93
2023-02-07T10:29:21.014Z,62.32
2023-02-07T10:30:21.258Z,61.21
2023-02-07T10:31:21.059Z,61.41
2023-02-07T10:32:20.932Z,62.14
2023-02-07T10:33:20.958Z,62.35
2023-02-07T10:34:20.957Z,62.32
2023-02-07T10:35:20.953Z,61.69
2023-02-07T10:36:20.956Z,61.59
2023-02-07T10:37:20.881Z,60.97
2023-02-07T10:38:20.898Z,60.76
2023-02-07T10:39:20.876Z,60.97
2023-02-07T10:40:20.844Z,60.45
2023-02-07T10:41:20.875Z,60.47
2023-02-07T10:42:20.863Z,60.47
2023-02-07T10:43:20.798Z,60.78
2023-02-07T10:44:20.842Z,61.00
2023-02-07T10:45:20.830Z,61.07
2023-02-07T10:46:20.803Z,61.07
2023-02-07T10:47:20.754Z,61.46
2023-02-07T10:48:20.787Z,60.88
2023-02-07T10:49:24.770Z,60.39
2023-02-07T10:50:41.701Z,59.12
2023-02-07T10:51:21.738Z,59.14
2023-02-07T10:52:20.715Z,58.94
2023-02-07T10:53:20.693Z,58.83
2023-02-07T10:54:20.660Z,59.25
2023-02-07T10:55:20.654Z,58.97
2023-02-07T10:56:20.650Z,59.66
2023-02-07T10:57:20.640Z,59.80
2023-02-07T10:58:23.587Z,60.39
2023-02-07T10:59:20.599Z,60.00
2023-02-07T11:00:20.576Z,59.98
2023-02-07T11:01:20.636Z,59.45
2023-02-07T11:02:20.622Z,59.25
2023-02-07T11:03:20.672Z,59.25
2023-02-07T11:04:20.541Z,58.97
2023-02-07T11:05:20.507Z,59.28
2023-02-07T11:06:20.481Z,59.28
2023-02-07T11:07:20.592Z,59.17
2023-02-07T11:08:20.451Z,59.66
2023-02-07T11:09:20.444Z,59.74
2023-02-07T11:10:20.485Z,59.30
2023-02-07T11:11:20.510Z,58.50
2023-02-07T11:12:20.430Z,58.52
2023-02-07T11:13:20.422Z,59.17
2023-02-07T11:14:20.465Z,59.04
2023-02-07T11:15:20.399Z,59.53
2023-02-07T11:16:20.510Z,58.31
2023-02-07T11:17:20.402Z,58.52
2023-02-07T11:18:20.327Z,58.73
2023-02-07T11:19:20.388Z,58.42
2023-02-07T11:20:20.288Z,58.13
2023-02-07T11:21:20.320Z,58.21
2023-02-07T11:22:20.322Z,58.31
2023-02-07T11:23:20.289Z,58.42
2023-02-07T11:24:20.297Z,58.18
2023-02-07T11:25:20.269Z,58.29
2023-02-07T11:26:20.228Z,57.45
2023-02-07T11:27:20.226Z,57.67
2023-02-07T11:28:20.361Z,57.77
2023-02-07T11:29:20.196Z,58.15
2023-02-07T11:30:20.221Z,57.84
2023-02-07T11:31:20.326Z,57.84
2023-02-07T11:32:20.196Z,57.53
2023-02-07T11:33:20.139Z,57.14
2023-02-07T11:34:20.118Z,56.93
2023-02-07T11:35:20.185Z,56.93
2023-02-07T11:36:20.108Z,56.93
2023-02-07T11:37:20.114Z,56.81
2023-02-07T11:38:20.129Z,57.12
2023-02-07T11:39:20.077Z,57.12
2023-02-07T11:40:20.096Z,56.68
2023-02-07T11:41:20.200Z,56.47
2023-02-07T11:42:20.046Z,56.08
2023-02-07T11:43:20.060Z,56.78
2023-02-07T11:44:20.010Z,56.96
2023-02-07T11:45:19.999Z,56.34
2023-02-07T11:46:19.959Z,56.45
2023-02-07T11:47:19.987Z,56.76
2023-02-07T11:48:20.017Z,55.93
2023-02-07T11:49:20.333Z,55.85
2023-02-07T11:50:19.906Z,55.85
2023-02-07T11:51:19.905Z,56.05
2023-02-07T11:52:19.899Z,56.47
2023-02-07T11:53:19.866Z,56.47
2023-02-07T11:54:19.932Z,56.37
2023-02-07T11:55:19.848Z,56.45
2023-02-07T11:56:19.843Z,55.30
2023-02-07T11:57:19.850Z,55.10
2023-02-07T11:58:19.796Z,55.27
2023-02-07T11:59:19.797Z,55.48
2023-02-07T12:00:19.811Z,55.17
2023-02-07T12:01:19.778Z,54.68
2023-02-07T12:02:19.823Z,54.58
2023-02-07T12:03:19.782Z,54.58
2023-02-07T12:04:19.717Z,55.07
2023-02-07T12:05:19.815Z,54.75
2023-02-07T12:06:19.765Z,54.65
2023-02-07T12:07:19.717Z,54.44
2023-02-07T12:08:19.698Z,54.03
2023-02-07T12:09:19.702Z,54.03
2023-02-07T12:10:19.674Z,54.24
2023-02-07T12:11:19.636Z,53.72
2023-02-07T12:12:19.620Z,53.90
2023-02-07T12:13:19.681Z,53.61
2023-02-07T12:14:19.617Z,54.11
2023-02-07T12:15:19.584Z,53.28
2023-02-07T12:16:19.641Z,53.17
2023-02-07T12:17:19.591Z,52.89
2023-02-07T12:18:19.557Z,53.00
2023-02-07T12:19:19.592Z,53.30
2023-02-07T12:20:19.556Z,53.10
2023-02-07T12:21:19.562Z,53.08
2023-02-07T12:22:19.505Z,52.84
2023-02-07T12:23:40.698Z,52.87
2023-02-07T12:24:20.515Z,53.46
2023-02-07T12:25:19.493Z,52.92
2023-02-07T12:26:19.486Z,52.61
2023-02-07T12:27:19.437Z,52.20
2023-02-07T12:28:19.495Z,51.78
2023-02-07T12:29:19.538Z,51.16
2023-02-07T12:30:19.429Z,51.70
2023-02-07T12:31:19.511Z,52.22
2023-02-07T12:32:19.513Z,51.78
2023-02-07T12:33:19.381Z,51.24
2023-02-07T12:34:19.336Z,51.45
2023-02-07T12:35:19.333Z,50.72
2023-02-07T12:36:19.358Z,50.62
2023-02-07T12:37:19.326Z,51.24
2023-02-07T12:38:19.276Z,50.70
2023-02-07T12:39:19.274Z,50.39
2023-02-07T12:40:19.319Z,50.93
2023-02-07T12:41:19.247Z,50.72
2023-02-07T12:42:19.293Z,50.31
2023-02-07T12:43:19.266Z,50.23
2023-02-07T12:44:19.226Z,50.51
2023-02-07T12:45:19.208Z,50.41
2023-02-07T12:46:19.200Z,50.51
2023-02-07T12:47:19.196Z,49.71
2023-02-07T12:48:19.384Z,49.61
2023-02-07T12:49:19.469Z,49.81
2023-02-07T12:50:19.151Z,49.90
2023-02-07T12:51:19.154Z,50.31
2023-02-07T12:52:19.127Z,49.38
2023-02-07T12:53:19.125Z,49.40
2023-02-07T12:54:19.097Z,49.61
2023-02-07T12:55:19.083Z,49.61